createdAt,value
2023-10-21T00:00:26.928Z,14.20
2023-10-21T00:02:55.721Z,14.20
2023-10-21T00:05:26.030Z,14.20
2023-10-21T00:07:54.763Z,14.20
2023-10-21T00:10:23.421Z,14.20
2023-10-21T00:12:52.020Z,14.20
2023-10-21T00:15:22.007Z,14.20
2023-10-21T00:17:51.510Z,14.20
2023-10-21T00:20:20.529Z,14.20
2023-10-21T00:22:49.241Z,14.20
2023-10-21T00:25:18.299Z,14.20
2023-10-21T00:27:46.830Z,14.20
2023-10-21T00:30:15.428Z,14.30
2023-10-21T00:32:45.471Z,14.20
2023-10-21T00:35:14.147Z,14.20
2023-10-21T00:37:42.776Z,14.20
2023-10-21T00:40:13.371Z,14.20
2023-10-21T00:42:42.004Z,14.20
2023-10-21T00:45:11.062Z,14.30
2023-10-21T00:47:40.057Z,14.20
2023-10-21T00:50:10.780Z,14.20
2023-10-21T00:52:47.719Z,14.20
2023-10-21T00:55:16.784Z,14.20
2023-10-21T00:57:45.437Z,14.20
2023-10-21T01:00:17.767Z,14.20
2023-10-21T01:02:48.914Z,14.20
2023-10-21T01:05:20.452Z,14.20
2023-10-21T01:07:49.009Z,14.20
2023-10-21T01:10:17.635Z,14.20
2023-10-21T01:12:46.176Z,14.20
2023-10-21T01:15:14.779Z,14.20
2023-10-21T01:17:43.435Z,14.20
2023-10-21T01:20:12.702Z,14.20
2023-10-21T01:22:42.855Z,14.30
2023-10-21T01:25:13.294Z,14.20
2023-10-21T01:27:42.673Z,14.30
2023-10-21T01:30:12.350Z,14.20
2023-10-21T01:32:41.002Z,14.30
2023-10-21T01:35:09.845Z,14.30
2023-10-21T01:37:38.385Z,14.30
2023-10-21T01:40:11.156Z,14.30
2023-10-21T01:42:41.169Z,14.30
2023-10-21T01:45:11.356Z,14.30
2023-10-21T01:47:40.012Z,14.30
2023-10-21T01:50:09.608Z,14.30
2023-10-21T01:52:38.717Z,14.30
2023-10-21T01:55:09.847Z,14.30
2023-10-21T01:57:40.238Z,14.30
2023-10-21T02:00:10.997Z,14.30
2023-10-21T02:02:42.457Z,14.30
2023-10-21T02:05:11.175Z,14.30
2023-10-21T02:07:40.325Z,14.30
2023-10-21T02:10:09.405Z,14.30
2023-10-21T02:12:38.037Z,14.30
2023-10-21T02:15:13.096Z,14.30
2023-10-21T02:17:42.290Z,14.30
2023-10-21T02:20:14.524Z,14.20
2023-10-21T02:22:44.062Z,14.30
2023-10-21T02:25:15.842Z,14.20
2023-10-21T02:27:45.203Z,14.20
2023-10-21T02:30:17.893Z,14.20
2023-10-21T02:32:47.307Z,14.20
2023-10-21T02:35:17.027Z,14.20
2023-10-21T02:37:46.468Z,14.30
2023-10-21T02:40:16.823Z,14.30
2023-10-21T02:42:45.959Z,14.20
2023-10-21T02:45:16.471Z,14.20
2023-10-21T02:47:45.163Z,14.20
2023-10-21T02:50:13.806Z,14.30
2023-10-21T02:52:42.357Z,14.30
2023-10-21T02:55:12.854Z,14.20
2023-10-21T02:57:42.551Z,14.30
2023-10-21T03:00:16.569Z,14.20
2023-10-21T03:02:47.427Z,14.20
2023-10-21T03:05:16.147Z,14.30
2023-10-21T03:07:45.126Z,14.20
2023-10-21T03:10:13.932Z,14.20
2023-10-21T03:12:44.876Z,14.20
2023-10-21T03:15:13.950Z,14.20
2023-10-21T03:17:42.827Z,14.20
2023-10-21T03:20:13.320Z,14.20
2023-10-21T03:22:42.127Z,14.20
2023-10-21T03:25:12.621Z,14.20
2023-10-21T03:27:41.470Z,14.20
2023-10-21T03:30:11.522Z,14.20
2023-10-21T03:32:40.233Z,14.20
2023-10-21T03:35:09.755Z,14.20
2023-10-21T03:37:39.660Z,14.20
2023-10-21T03:40:11.524Z,14.30
2023-10-21T03:42:40.277Z,14.30
2023-10-21T03:45:10.885Z,14.20
2023-10-21T03:47:39.589Z,14.30
2023-10-21T03:50:10.058Z,14.30
2023-10-21T03:52:41.053Z,14.20
2023-10-21T03:55:10.524Z,14.30
2023-10-21T03:57:39.081Z,14.20
2023-10-21T04:00:10.108Z,14.20
2023-10-21T04:02:40.661Z,14.30
2023-10-21T04:05:09.812Z,14.20
2023-10-21T04:07:43.124Z,14.30
2023-10-21T04:10:14.518Z,14.30
2023-10-21T04:12:43.773Z,14.30
2023-10-21T04:15:12.891Z,14.30
2023-10-21T04:17:41.523Z,14.30
2023-10-21T04:20:11.302Z,14.30
2023-10-21T04:22:39.828Z,14.30
2023-10-21T04:25:10.380Z,14.30
2023-10-21T04:27:39.592Z,14.30
2023-10-21T04:30:10.003Z,14.30
2023-10-21T04:32:38.893Z,14.30
2023-10-21T04:35:09.199Z,14.30
2023-10-21T04:37:38.414Z,14.40
2023-10-21T04:40:10.380Z,14.40
2023-10-21T04:42:39.806Z,14.40
2023-10-21T04:45:09.693Z,14.40
2023-10-21T04:47:38.796Z,14.40
2023-10-21T04:50:08.075Z,14.40
2023-10-21T04:52:38.415Z,14.40
2023-10-21T04:55:07.454Z,14.30
2023-10-21T04:57:37.458Z,14.30
2023-10-21T05:00:07.618Z,14.30
2023-10-21T05:02:36.328Z,14.30
2023-10-21T05:05:05.856Z,14.30
2023-10-21T05:07:34.432Z,14.20
2023-10-21T05:10:04.317Z,14.20
2023-10-21T05:12:32.878Z,14.30
2023-10-21T05:15:03.029Z,14.20
2023-10-21T05:17:31.834Z,14.20
2023-10-21T05:20:00.484Z,14.20
2023-10-21T05:22:29.977Z,14.20
2023-10-21T05:24:58.505Z,14.20
2023-10-21T05:27:27.171Z,14.20
2023-10-21T05:29:55.966Z,14.10
2023-10-21T05:32:26.098Z,14.20
2023-10-21T05:34:54.706Z,14.10
2023-10-21T05:37:23.409Z,14.10
2023-10-21T05:39:53.350Z,14.10
2023-10-21T05:42:21.963Z,14.20
2023-10-21T05:44:50.676Z,14.10
2023-10-21T05:47:19.285Z,14.10
2023-10-21T05:49:49.159Z,14.10
2023-10-21T05:52:17.772Z,14.10
2023-10-21T05:54:46.341Z,14.10
2023-10-21T05:57:15.107Z,14.10
2023-10-21T05:59:43.714Z,14.10
2023-10-21T06:02:12.660Z,14.10
2023-10-21T06:04:41.416Z,14.10
2023-10-21T06:07:11.433Z,14.10
2023-10-21T06:09:40.700Z,14.10
2023-10-21T06:12:09.827Z,14.20
2023-10-21T06:14:38.519Z,14.20
2023-10-21T06:17:07.056Z,14.20
2023-10-21T06:19:35.629Z,14.20
2023-10-21T06:22:04.370Z,14.20
2023-10-21T06:24:34.622Z,14.20
2023-10-21T06:27:05.619Z,14.20
2023-10-21T06:29:34.225Z,14.20
2023-10-21T06:32:03.747Z,14.30
2023-10-21T06:34:32.373Z,14.30
2023-10-21T06:37:01.218Z,14.30
2023-10-21T06:39:35.547Z,14.30
2023-10-21T06:42:06.718Z,14.30
2023-10-21T06:44:37.584Z,14.30
2023-10-21T06:47:06.761Z,14.40
2023-10-21T06:49:35.393Z,14.40
2023-10-21T06:52:04.172Z,14.40
2023-10-21T06:54:32.705Z,14.40
2023-10-21T06:57:01.393Z,14.40
2023-10-21T06:59:31.764Z,14.40
2023-10-21T07:02:00.790Z,14.40
2023-10-21T07:04:29.574Z,14.50
2023-10-21T07:06:58.200Z,14.50
2023-10-21T07:09:26.898Z,14.50
2023-10-21T07:11:55.560Z,14.50
2023-10-21T07:14:24.522Z,14.50
2023-10-21T07:16:55.234Z,14.50
2023-10-21T07:19:24.317Z,14.50
2023-10-21T07:21:53.038Z,14.50
2023-10-21T07:24:21.650Z,14.50
2023-10-21T07:26:50.235Z,14.50
2023-10-21T07:29:18.757Z,14.50
2023-10-21T07:31:48.608Z,14.50
2023-10-21T07:34:18.811Z,14.50
2023-10-21T07:36:47.707Z,14.50
2023-10-21T07:39:19.341Z,14.50
2023-10-21T07:41:48.364Z,14.50
2023-10-21T07:44:18.940Z,14.50
2023-10-21T07:46:49.082Z,14.50
2023-10-21T07:49:19.249Z,14.50
2023-10-21T07:51:49.698Z,14.50
2023-10-21T07:54:18.498Z,14.50
2023-10-21T07:56:50.290Z,14.50
2023-10-21T07:59:19.817Z,14.50
2023-10-21T08:01:48.624Z,14.50
2023-10-21T08:04:19.513Z,14.50
2023-10-21T08:06:48.304Z,14.50
2023-10-21T08:09:17.525Z,14.50
2023-10-21T08:11:46.986Z,14.50
2023-10-21T08:14:19.313Z,14.60
2023-10-21T08:16:48.324Z,14.60
2023-10-21T08:19:18.356Z,14.60
2023-10-21T08:21:46.997Z,14.60
2023-10-21T08:24:15.856Z,14.60
2023-10-21T08:26:44.672Z,14.60
2023-10-21T08:29:13.405Z,14.70
2023-10-21T08:31:42.622Z,14.70
2023-10-21T08:34:14.182Z,14.70
2023-10-21T08:36:44.652Z,14.70
2023-10-21T08:39:14.005Z,14.70
2023-10-21T08:41:43.758Z,14.80
2023-10-21T08:44:14.663Z,14.80
2023-10-21T08:46:43.704Z,14.90
2023-10-21T08:49:14.508Z,14.90
2023-10-21T08:51:46.420Z,15.00
2023-10-21T08:54:16.505Z,15.00
2023-10-21T08:56:45.096Z,15.10
2023-10-21T08:59:15.856Z,15.10
2023-10-21T09:01:48.509Z,15.20
2023-10-21T09:04:23.655Z,15.20
2023-10-21T09:06:59.936Z,15.20
2023-10-21T09:09:30.601Z,15.20
2023-10-21T09:12:07.160Z,15.20
2023-10-21T09:14:53.309Z,15.20
2023-10-21T09:17:23.008Z,15.20
2023-10-21T09:19:54.049Z,15.20
2023-10-21T09:22:26.186Z,15.20
2023-10-21T09:25:16.186Z,15.20
2023-10-21T09:27:45.873Z,15.20
2023-10-21T09:30:18.818Z,15.20
2023-10-21T09:32:48.602Z,15.20
2023-10-21T09:35:24.838Z,15.30
2023-10-21T09:37:54.926Z,15.30
2023-10-21T09:40:25.633Z,15.30
2023-10-21T09:42:54.625Z,15.40
2023-10-21T09:45:26.563Z,15.40
2023-10-21T09:47:56.675Z,15.40
2023-10-21T09:50:27.411Z,15.50
2023-10-21T09:53:09.627Z,15.50
2023-10-21T09:55:41.039Z,15.60
2023-10-21T09:58:10.856Z,15.60
2023-10-21T10:00:41.737Z,15.60
2023-10-21T10:03:11.474Z,15.70
2023-10-21T10:05:43.141Z,15.70
2023-10-21T10:08:13.590Z,15.70
2023-10-21T10:10:42.623Z,15.80
2023-10-21T10:13:13.150Z,15.80
2023-10-21T10:15:43.992Z,15.90
2023-10-21T10:18:19.604Z,15.90
2023-10-21T10:20:50.392Z,15.90
2023-10-21T10:23:21.605Z,15.90
2023-10-21T10:25:52.875Z,15.90
2023-10-21T10:28:22.481Z,15.90
2023-10-21T10:30:52.093Z,15.90
2023-10-21T10:33:23.549Z,16.00
2023-10-21T10:35:54.016Z,16.00
2023-10-21T10:38:28.775Z,16.00
2023-10-21T10:41:07.254Z,16.10
2023-10-21T10:43:37.059Z,16.10
2023-10-21T10:46:07.825Z,16.10
2023-10-21T10:48:36.706Z,16.10
2023-10-21T10:51:11.989Z,16.10
2023-10-21T10:53:42.283Z,16.10
2023-10-21T10:56:17.509Z,16.20
2023-10-21T10:58:47.974Z,16.10
2023-10-21T11:01:20.697Z,16.20
2023-10-21T11:03:56.981Z,16.10
2023-10-21T11:06:27.851Z,16.10
2023-10-21T11:08:59.003Z,16.10
2023-10-21T11:11:28.920Z,16.10
2023-10-21T11:13:57.880Z,16.10
2023-10-21T11:16:26.662Z,16.10
2023-10-21T11:18:55.913Z,16.10
2023-10-21T11:21:37.645Z,16.10
2023-10-21T11:24:10.064Z,16.10
2023-10-21T11:26:40.426Z,16.10
2023-10-21T11:29:09.554Z,16.10
2023-10-21T11:31:38.519Z,16.20
2023-10-21T11:34:10.907Z,16.20
2023-10-21T11:36:41.133Z,16.20
2023-10-21T11:39:14.652Z,16.20
2023-10-21T11:41:51.281Z,16.30
2023-10-21T11:44:26.901Z,16.30
2023-10-21T11:46:59.264Z,16.30
2023-10-21T11:49:28.771Z,16.40
2023-10-21T11:51:57.790Z,16.40
2023-10-21T11:54:34.423Z,16.40
2023-10-21T11:57:36.304Z,16.50
2023-10-21T12:00:22.858Z,16.50
2023-10-21T12:03:14.414Z,16.50
2023-10-21T12:06:12.398Z,16.50
2023-10-21T12:09:15.715Z,16.50
2023-10-21T12:12:05.431Z,16.60
2023-10-21T12:14:48.259Z,16.70
2023-10-21T12:17:34.957Z,16.70
2023-10-21T12:20:20.144Z,16.80
2023-10-21T12:23:11.502Z,16.80
2023-10-21T12:26:09.195Z,16.80
2023-10-21T12:28:57.764Z,16.80
2023-10-21T12:31:48.662Z,16.80
2023-10-21T12:34:35.197Z,16.80
2023-10-21T12:37:23.762Z,16.80
2023-10-21T12:39:58.544Z,16.80
2023-10-21T12:42:28.238Z,16.80
2023-10-21T12:44:59.477Z,16.80
2023-10-21T12:47:28.884Z,16.80
2023-10-21T12:49:57.701Z,16.70
2023-10-21T12:52:26.605Z,16.70
2023-10-21T12:54:55.208Z,16.70
2023-10-21T12:57:24.712Z,16.70
2023-10-21T12:59:54.026Z,16.70
2023-10-21T13:02:23.985Z,16.80
2023-10-21T13:04:52.863Z,16.80
2023-10-21T13:07:23.286Z,16.80
2023-10-21T13:09:51.867Z,16.80
2023-10-21T13:12:21.307Z,16.80
2023-10-21T13:14:50.106Z,16.90
2023-10-21T13:17:20.203Z,16.90
2023-10-21T13:19:50.629Z,16.90
2023-10-21T13:22:20.135Z,17.00
2023-10-21T13:27:20.017Z,17.00
2023-10-21T13:29:48.758Z,17.10
2023-10-21T13:32:17.817Z,17.10
2023-10-21T13:34:46.461Z,17.20
2023-10-21T13:37:21.125Z,17.20
2023-10-21T13:39:49.750Z,17.30
2023-10-21T13:42:18.686Z,17.30
2023-10-21T13:44:47.713Z,17.30
2023-10-21T13:47:18.889Z,17.40
2023-10-21T13:49:47.544Z,17.50
2023-10-21T13:52:17.558Z,17.60
2023-10-21T13:54:46.821Z,17.60
2023-10-21T13:57:15.593Z,17.70
2023-10-21T13:59:48.655Z,17.70
2023-10-21T14:02:17.322Z,17.80
2023-10-21T14:04:48.978Z,17.80
2023-10-21T14:07:19.107Z,17.70
2023-10-21T14:09:47.823Z,17.70
2023-10-21T14:12:17.946Z,17.70
2023-10-21T14:14:46.587Z,17.60
2023-10-21T14:17:15.801Z,17.60
2023-10-21T14:19:44.347Z,17.60
2023-10-21T14:22:13.080Z,17.60
2023-10-21T14:24:43.029Z,17.60
2023-10-21T14:27:11.687Z,17.60
2023-10-21T14:29:40.978Z,17.50
2023-10-21T14:32:10.961Z,17.50
2023-10-21T14:34:42.733Z,17.50
2023-10-21T14:37:11.750Z,17.60
2023-10-21T14:39:41.954Z,17.50
2023-10-21T14:42:10.761Z,17.50
2023-10-21T14:44:42.594Z,17.40
2023-10-21T14:47:11.629Z,17.40
2023-10-21T14:49:40.585Z,17.40
2023-10-21T14:52:09.746Z,17.30
2023-10-21T14:54:38.599Z,17.30
2023-10-21T14:57:08.721Z,17.30
2023-10-21T14:59:37.567Z,17.30
2023-10-21T15:02:06.505Z,17.30
2023-10-21T15:04:35.469Z,17.30
2023-10-21T15:07:04.531Z,17.30
2023-10-21T15:09:33.324Z,17.30
2023-10-21T15:12:02.054Z,17.30
2023-10-21T15:14:46.992Z,17.30
2023-10-21T15:17:20.717Z,17.20
2023-10-21T15:19:50.151Z,17.20
2023-10-21T15:22:18.902Z,17.20
2023-10-21T15:24:48.556Z,17.10
2023-10-21T15:27:17.267Z,17.10
2023-10-21T15:29:47.259Z,17.10
2023-10-21T15:32:15.968Z,17.00
2023-10-21T15:34:48.265Z,17.00
2023-10-21T15:37:17.113Z,16.90
2023-10-21T15:39:46.294Z,16.90
2023-10-21T15:42:15.161Z,16.90
2023-10-21T15:44:46.415Z,16.80
2023-10-21T15:47:16.430Z,16.80
2023-10-21T15:49:45.291Z,16.80
2023-10-21T15:52:14.120Z,16.70
2023-10-21T15:54:44.563Z,16.70
2023-10-21T15:57:13.945Z,16.60
2023-10-21T15:59:43.568Z,16.60
2023-10-21T16:02:12.557Z,16.60
2023-10-21T16:04:42.506Z,16.50
2023-10-21T16:07:11.363Z,16.50
2023-10-21T16:09:40.116Z,16.50
2023-10-21T16:12:09.347Z,16.40
2023-10-21T16:14:38.136Z,16.40
2023-10-21T16:17:09.802Z,16.40
2023-10-21T16:19:38.461Z,16.30
2023-10-21T16:22:08.540Z,16.30
2023-10-21T16:24:37.167Z,16.30
2023-10-21T16:27:06.258Z,16.20
2023-10-21T16:29:34.962Z,16.20
2023-10-21T16:32:04.158Z,16.20
2023-10-21T16:34:33.074Z,16.10
2023-10-21T16:37:02.248Z,16.10
2023-10-21T16:39:35.489Z,16.00
2023-10-21T16:42:04.615Z,16.00
2023-10-21T16:44:33.258Z,16.00
2023-10-21T16:47:01.981Z,15.90
2023-10-21T16:49:30.553Z,15.90
2023-10-21T16:51:59.235Z,15.90
2023-10-21T16:54:28.338Z,15.80
2023-10-21T16:56:58.510Z,15.80
2023-10-21T16:59:27.216Z,15.80
2023-10-21T17:01:55.865Z,15.80
2023-10-21T17:04:26.889Z,15.70
2023-10-21T17:06:57.153Z,15.70
2023-10-21T17:09:25.820Z,15.70
2023-10-21T17:11:54.477Z,15.70
2023-10-21T17:14:24.663Z,15.70
2023-10-21T17:17:14.863Z,15.60
2023-10-21T17:19:55.268Z,15.60
2023-10-21T17:22:29.696Z,15.60
2023-10-21T17:25:13.267Z,15.60
2023-10-21T17:27:43.169Z,15.60
2023-10-21T17:30:24.537Z,15.60
2023-10-21T17:33:02.906Z,15.60
2023-10-21T17:35:36.243Z,15.60
2023-10-21T17:38:06.647Z,15.50
2023-10-21T17:40:35.484Z,15.50
2023-10-21T17:43:04.075Z,15.60
2023-10-21T17:45:34.021Z,15.60
2023-10-21T17:48:02.778Z,15.50
2023-10-21T17:50:36.980Z,15.50
2023-10-21T17:53:05.574Z,15.50
2023-10-21T17:55:34.798Z,15.50
2023-10-21T17:58:03.610Z,15.50
2023-10-21T18:00:33.973Z,15.50
2023-10-21T18:03:03.964Z,15.50
2023-10-21T18:05:33.000Z,15.50
2023-10-21T18:08:03.974Z,15.50
2023-10-21T18:10:32.629Z,15.40
2023-10-21T18:13:01.323Z,15.40
2023-10-21T18:15:30.002Z,15.40
2023-10-21T18:18:00.163Z,15.40
2023-10-21T18:20:28.770Z,15.40
2023-10-21T18:22:58.808Z,15.40
2023-10-21T18:25:27.903Z,15.40
2023-10-21T18:27:57.015Z,15.40
2023-10-21T18:30:25.791Z,15.40
2023-10-21T18:32:54.622Z,15.30
2023-10-21T18:35:24.580Z,15.40
2023-10-21T18:37:57.944Z,15.30
2023-10-21T18:40:26.614Z,15.30
2023-10-21T18:42:55.349Z,15.30
2023-10-21T18:45:24.734Z,15.30
2023-10-21T18:47:56.104Z,15.20
2023-10-21T18:50:27.294Z,15.20
2023-10-21T18:52:55.909Z,15.20
2023-10-21T18:55:24.573Z,15.20
2023-10-21T18:57:53.274Z,15.20
2023-10-21T19:00:21.971Z,15.20
2023-10-21T19:02:50.976Z,15.20
2023-10-21T19:05:19.669Z,15.20
2023-10-21T19:07:49.660Z,15.10
2023-10-21T19:10:23.518Z,15.10
2023-10-21T19:12:52.272Z,15.10
2023-10-21T19:15:21.556Z,15.10
2023-10-21T19:17:50.224Z,15.10
2023-10-21T19:20:18.926Z,15.10
2023-10-21T19:22:48.996Z,15.10
2023-10-21T19:25:17.851Z,15.10
2023-10-21T19:27:46.630Z,15.10
2023-10-21T19:30:15.335Z,15.10
2023-10-21T19:32:44.108Z,15.10
2023-10-21T19:35:12.711Z,15.00
2023-10-21T19:37:49.537Z,15.00
2023-10-21T19:40:20.087Z,15.00
2023-10-21T19:42:48.733Z,15.00
2023-10-21T19:45:17.682Z,15.00
2023-10-21T19:47:46.463Z,15.00
2023-10-21T19:50:15.103Z,15.00
2023-10-21T19:52:44.313Z,15.00
2023-10-21T19:55:13.151Z,15.00
2023-10-21T19:57:43.128Z,15.00
2023-10-21T20:00:13.283Z,15.00
2023-10-21T20:02:44.456Z,15.00
2023-10-21T20:05:17.648Z,15.00
2023-10-21T20:07:47.689Z,14.90
2023-10-21T20:10:17.991Z,14.90
2023-10-21T20:12:47.973Z,14.90
2023-10-21T20:15:16.664Z,14.90
2023-10-21T20:17:48.575Z,14.90
2023-10-21T20:20:17.335Z,14.90
2023-10-21T20:22:46.142Z,14.80
2023-10-21T20:25:14.806Z,14.80
2023-10-21T20:27:43.590Z,14.80
2023-10-21T20:30:14.212Z,14.80
2023-10-21T20:32:43.092Z,14.80
2023-10-21T20:35:24.025Z,14.80
2023-10-21T20:37:56.668Z,14.80
2023-10-21T20:40:25.650Z,14.80
2023-10-21T20:42:54.331Z,14.80
2023-10-21T20:45:24.724Z,14.80
2023-10-21T20:47:53.378Z,14.80
2023-10-21T20:50:24.516Z,14.80
2023-10-21T20:52:54.198Z,14.80
2023-10-21T20:55:23.142Z,14.80
2023-10-21T20:57:51.808Z,14.80
2023-10-21T21:00:21.777Z,14.80
2023-10-21T21:02:53.815Z,14.70
2023-10-21T21:05:22.404Z,14.80
2023-10-21T21:07:53.903Z,14.80
2023-10-21T21:10:23.181Z,14.80
2023-10-21T21:12:53.165Z,14.80
2023-10-21T21:15:22.786Z,14.80
2023-10-21T21:17:53.066Z,14.80
2023-10-21T21:20:23.045Z,14.80
2023-10-21T21:22:52.111Z,14.80
2023-10-21T21:25:21.522Z,14.80
2023-10-21T21:27:50.878Z,14.80
2023-10-21T21:30:19.905Z,14.80
2023-10-21T21:32:49.645Z,14.80
2023-10-21T21:35:19.881Z,14.80
2023-10-21T21:37:48.596Z,14.80
2023-10-21T21:40:17.211Z,14.80
2023-10-21T21:42:46.117Z,14.80
2023-10-21T21:45:14.918Z,14.80
2023-10-21T21:47:43.855Z,14.80
2023-10-21T21:50:12.482Z,14.80
2023-10-21T21:52:42.550Z,14.80
2023-10-21T21:55:11.235Z,14.80
2023-10-21T21:57:40.195Z,14.80
2023-10-21T22:00:11.313Z,14.80
2023-10-21T22:02:40.244Z,14.80
2023-10-21T22:05:10.661Z,14.80
2023-10-21T22:07:39.338Z,14.80
2023-10-21T22:10:10.371Z,14.80
2023-10-21T22:12:39.833Z,14.80
2023-10-21T22:15:10.410Z,14.90
2023-10-21T22:17:39.851Z,14.90
2023-10-21T22:20:19.511Z,14.90
2023-10-21T22:22:51.074Z,14.90
2023-10-21T22:25:28.721Z,14.90
2023-10-21T22:28:02.436Z,14.90
2023-10-21T22:30:31.145Z,14.90
2023-10-21T22:32:59.818Z,14.90
2023-10-21T22:35:28.459Z,15.00
2023-10-21T22:37:57.190Z,15.00
2023-10-21T22:40:27.145Z,15.00
2023-10-21T22:42:55.923Z,15.00
2023-10-21T22:45:24.630Z,15.00
2023-10-21T22:47:53.776Z,15.00
2023-10-21T22:50:22.498Z,15.00
2023-10-21T22:52:51.243Z,15.00
2023-10-21T22:55:20.064Z,15.00
2023-10-21T22:57:50.052Z,15.00
2023-10-21T23:00:22.490Z,15.00
2023-10-21T23:02:51.590Z,15.00
2023-10-21T23:05:20.489Z,15.00
2023-10-21T23:07:49.083Z,15.00
2023-10-21T23:10:19.892Z,15.00
2023-10-21T23:12:51.708Z,15.00
2023-10-21T23:15:20.942Z,15.00
2023-10-21T23:17:51.239Z,15.00
2023-10-21T23:20:20.428Z,15.00
2023-10-21T23:22:49.031Z,14.90
2023-10-21T23:25:21.050Z,15.00
2023-10-21T23:27:53.636Z,14.90
2023-10-21T23:30:22.936Z,14.90
2023-10-21T23:32:51.733Z,14.90
2023-10-21T23:35:21.048Z,14.90
2023-10-21T23:37:49.760Z,14.90
2023-10-21T23:40:19.266Z,14.90
2023-10-21T23:42:49.678Z,14.90
2023-10-21T23:45:22.507Z,14.90
2023-10-21T23:47:51.727Z,14.80
2023-10-21T23:50:20.465Z,14.80
2023-10-21T23:52:49.158Z,14.90
2023-10-21T23:55:18.619Z,14.80
2023-10-21T23:57:47.228Z,14.80
